Time;durP1;ratioP1;P1;durP2;ratioP2;P2;SDS_P1;SDS_P2;PMS_P1;PMS_P2;Temp;Humidity;BMP_temperature;BMP_pressure;BME280_temperature;BME280_humidity;BME280_pressure;Samples;Min_cycle;Max_cycle;Signal;HPM_P1;HPM_P2
2021/05/06 07:32:23;;;;;;;25.02;4.38;;;12.20;99.90;;;;;;5170042;23;20044;-83
2021/05/06 07:34:52;;;;;;;34.95;5.72;;;12.20;99.90;;;;;;4914062;29;20048;-82
2021/05/06 07:37:20;;;;;;;28.45;5.07;;;12.20;99.90;;;;;;4915234;29;20090;-83
2021/05/06 07:39:50;;;;;;;24.90;4.90;;;12.30;99.90;;;;;;4916863;29;20558;-83
2021/05/06 07:42:19;;;;;;;31.17;5.57;;;12.30;99.90;;;;;;4917155;29;20514;-82
2021/05/06 07:44:46;;;;;;;27.23;5.07;;;12.40;99.90;;;;;;4918909;29;20052;-82
2021/05/06 07:47:15;;;;;;;;;;;12.40;99.90;;;;;;4918692;29;20051;-82
2021/05/06 07:49:49;;;;;;;27.40;5.93;;;12.40;99.90;;;;;;4919003;29;19929;-81
2021/05/06 07:52:20;;;;;;;37.90;5.43;;;12.40;99.90;;;;;;4917341;29;20052;-81
2021/05/06 07:54:55;;;;;;;31.42;5.57;;;12.50;99.90;;;;;;4917741;29;20202;-83
2021/05/06 07:57:23;;;;;;;32.53;5.82;;;12.50;99.90;;;;;;4917980;29;20135;-82
2021/05/06 07:59:50;;;;;;;31.98;5.93;;;12.60;99.90;;;;;;4917523;29;20060;-83
2021/05/06 08:02:17;;;;;;;32.50;5.40;;;12.60;99.90;;;;;;4916854;29;20052;-82
2021/05/06 08:04:43;;;;;;;26.17;4.80;;;12.60;99.90;;;;;;4917579;29;20059;-85
2021/05/06 08:07:10;;;;;;;35.00;4.97;;;12.70;99.90;;;;;;4918372;29;20099;-84
2021/05/06 08:09:36;;;;;;;34.22;5.38;;;12.70;99.90;;;;;;4917056;29;20045;-83
2021/05/06 08:12:03;;;;;;;30.67;4.40;;;12.70;99.90;;;;;;4921154;29;20099;-82
2021/05/06 08:14:29;;;;;;;26.10;4.78;;;12.70;99.90;;;;;;4917123;29;20104;-83
2021/05/06 08:16:57;;;;;;;31.75;5.20;;;12.70;99.90;;;;;;4918490;29;20060;-83
2021/05/06 08:19:23;;;;;;;29.10;4.80;;;12.80;99.90;;;;;;4917165;29;20115;-83
2021/05/06 08:21:50;;;;;;;30.23;4.78;;;12.80;99.90;;;;;;4917801;29;20071;-82
2021/05/06 08:24:16;;;;;;;29.25;4.47;;;12.80;99.90;;;;;;4917635;29;20116;-83
2021/05/06 08:26:43;;;;;;;29.40;5.55;;;12.70;99.90;;;;;;4917931;29;20056;-84
2021/05/06 08:29:09;;;;;;;27.45;5.07;;;12.60;99.90;;;;;;4916428;29;20111;-84
2021/05/06 08:31:35;;;;;;;21.08;4.82;;;12.60;99.90;;;;;;4926277;29;20052;-83
2021/05/06 08:34:02;;;;;;;28.08;5.63;;;12.60;99.90;;;;;;4922122;29;20495;-84
2021/05/06 08:36:29;;;;;;;29.85;5.45;;;12.60;99.90;;;;;;4921331;29;20048;-83
2021/05/06 08:38:55;;;;;;;26.13;5.15;;;12.60;99.90;;;;;;4905133;29;20047;-83
2021/05/06 08:41:22;;;;;;;26.88;4.97;;;12.70;99.90;;;;;;4919454;29;20052;-83
2021/05/06 08:43:59;;;;;;;26.65;4.57;;;12.80;99.90;;;;;;4902906;29;20503;-82
2021/05/06 08:46:36;;;;;;;24.23;5.03;;;12.90;99.90;;;;;;4921490;29;20080;-83
2021/05/06 08:49:04;;;;;;;24.63;4.85;;;13.00;99.90;;;;;;4904974;29;20059;-84
2021/05/06 08:51:31;;;;;;;27.42;5.47;;;13.10;99.90;;;;;;4920641;29;20059;-86
2021/05/06 08:53:58;;;;;;;28.33;5.18;;;13.20;99.90;;;;;;4921783;29;20052;-84
2021/05/06 08:56:24;;;;;;;27.20;4.60;;;13.30;99.90;;;;;;4902471;29;20487;-82
2021/05/06 08:58:51;;;;;;;30.17;4.90;;;13.40;99.90;;;;;;4902497;29;20044;-85
2021/05/06 09:01:18;;;;;;;28.83;6.07;;;13.50;99.90;;;;;;4921718;29;20523;-86
2021/05/06 09:03:44;;;;;;;32.55;5.60;;;13.70;99.90;;;;;;4904589;29;20044;-83
2021/05/06 09:06:17;;;;;;;25.67;5.43;;;13.80;99.90;;;;;;4920979;29;20074;-84
2021/05/06 09:09:00;;;;;;;37.53;6.03;;;13.70;99.90;;;;;;4904477;29;20083;-84
2021/05/06 09:11:32;;;;;;;31.48;5.63;;;13.70;99.90;;;;;;4919585;29;20162;-83
2021/05/06 09:14:06;;;;;;;24.42;5.30;;;13.70;99.90;;;;;;4901194;29;20063;-83
2021/05/06 09:16:38;;;;;;;25.60;4.55;;;13.70;99.90;;;;;;4928784;29;20036;-84
2021/05/06 09:19:08;;;;;;;27.73;5.07;;;13.70;99.90;;;;;;4921387;29;20048;-85
2021/05/06 09:21:38;;;;;;;33.55;5.15;;;13.60;99.90;;;;;;4920999;29;20103;-83
2021/05/06 09:24:19;;;;;;;18.63;4.32;;;13.60;99.90;;;;;;4903913;29;20056;-83
2021/05/06 09:26:46;;;;;;;25.52;4.70;;;13.60;99.90;;;;;;4904268;29;20043;-85
2021/05/06 09:29:31;;;;;;;35.03;5.72;;;13.70;99.90;;;;;;4917191;29;20052;-85
2021/05/06 09:32:14;;;;;;;30.85;5.82;;;13.80;99.90;;;;;;4900688;29;20511;-84
2021/05/06 09:34:43;;;;;;;23.52;5.15;;;13.80;99.90;;;;;;4928110;29;20048;-86
2021/05/06 09:37:23;;;;;;;28.73;5.07;;;13.70;99.90;;;;;;4915463;29;20102;-84
2021/05/06 09:40:08;;;;;;;32.55;6.63;;;13.70;99.90;;;;;;4904144;29;20138;-85
2021/05/06 09:42:40;;;;;;;31.10;5.85;;;13.90;99.90;;;;;;4904420;29;20048;-86
2021/05/06 09:45:18;;;;;;;37.58;5.78;;;14.10;99.90;;;;;;4920275;29;20471;-86
2021/05/06 09:47:44;;;;;;;32.05;5.40;;;14.00;99.90;;;;;;4920774;29;20063;-85
2021/05/06 09:50:31;;;;;;;32.97;5.55;;;14.00;99.90;;;;;;4916853;29;20048;-84
2021/05/06 09:52:57;;;;;;;28.45;6.25;;;14.00;99.90;;;;;;4916187;29;20123;-85
2021/05/06 09:55:32;;;;;;;27.90;5.82;;;14.10;99.90;;;;;;4904023;29;20112;-85
2021/05/06 09:58:22;;;;;;;31.15;5.13;;;14.00;99.90;;;;;;4920271;29;20048;-85
2021/05/06 10:00:50;;;;;;;22.42;4.55;;;14.10;99.90;;;;;;4902968;29;20115;-84
2021/05/06 10:03:19;;;;;;;27.60;4.87;;;14.00;99.90;;;;;;4901891;29;20527;-86
2021/05/06 10:05:48;;;;;;;26.10;5.43;;;13.90;99.90;;;;;;4920162;29;20047;-85
2021/05/06 10:08:16;;;;;;;26.20;5.55;;;13.80;99.90;;;;;;4917157;29;20581;-85
2021/05/06 10:10:43;;;;;;;24.98;5.45;;;13.90;99.90;;;;;;4915326;29;20056;-83
2021/05/06 10:13:11;;;;;;;20.35;4.60;;;13.90;99.90;;;;;;4920433;29;20463;-85
2021/05/06 10:15:39;;;;;;;26.77;5.40;;;14.00;99.90;;;;;;4920174;29;20492;-84
2021/05/06 10:18:07;;;;;;;27.08;5.28;;;14.10;99.90;;;;;;4902868;29;20130;-83
2021/05/06 10:20:35;;;;;;;21.85;4.78;;;14.10;99.90;;;;;;4902784;29;20047;-83
2021/05/06 10:23:02;;;;;;;21.63;4.53;;;14.10;99.90;;;;;;4899460;29;20072;-85
2021/05/06 10:25:30;;;;;;;22.13;4.18;;;14.20;99.90;;;;;;4903727;29;20487;-84
2021/05/06 10:27:57;;;;;;;23.58;4.82;;;14.30;99.90;;;;;;4903148;29;20056;-85
2021/05/06 10:30:24;;;;;;;29.35;5.70;;;14.40;99.90;;;;;;4919399;29;20112;-84
2021/05/06 10:32:51;;;;;;;24.85;4.78;;;14.60;99.90;;;;;;4919394;29;20462;-86
2021/05/06 10:35:21;;;;;;;30.85;4.78;;;14.70;99.90;;;;;;4900183;29;20152;-85
2021/05/06 10:38:08;;;;;;;23.27;5.35;;;14.80;99.90;;;;;;4918014;29;20068;-85
2021/05/06 10:40:37;;;;;;;27.17;6.00;;;14.60;99.90;;;;;;4927593;29;20035;-84
2021/05/06 10:43:28;;;;;;;32.75;5.82;;;14.70;99.90;;;;;;4919468;29;20052;-88
2021/05/06 10:46:03;;;;;;;24.65;5.22;;;14.80;99.90;;;;;;4919646;29;20070;-85
2021/05/06 10:49:07;;;;;;;25.95;4.70;;;14.90;99.90;;;;;;4902583;29;20052;-86
2021/05/06 10:51:43;;;;;;;28.90;5.55;;;15.00;99.90;;;;;;4902517;29;20043;-85
2021/05/06 10:54:29;;;;;;;30.85;5.15;;;15.20;99.90;;;;;;4902494;29;20048;-86
2021/05/06 10:57:01;;;;;;;31.08;5.18;;;15.20;99.90;;;;;;4919500;29;20043;-84
2021/05/06 10:59:37;;;;;;;27.77;5.90;;;15.20;99.90;;;;;;4917714;29;20107;-84
2021/05/06 11:02:04;;;;;;;27.33;5.13;;;15.20;99.90;;;;;;4898326;29;20507;-84
2021/05/06 11:04:34;;;;;;;31.00;5.95;;;15.20;99.90;;;;;;4902925;29;20119;-85
2021/05/06 11:07:18;;;;;;;30.30;7.22;;;15.10;99.90;;;;;;4919394;29;20044;-85
2021/05/06 11:09:52;;;;;;;31.95;10.43;;;15.00;99.90;;;;;;4902318;29;20048;-85
2021/05/06 11:12:46;;;;;;;41.42;14.93;;;15.10;99.90;;;;;;4918721;29;20056;-85
2021/05/06 11:15:18;;;;;;;25.52;5.43;;;15.10;99.90;;;;;;4915950;29;20047;-84
2021/05/06 11:17:46;;;;;;;30.23;5.57;;;15.00;99.90;;;;;;4918919;29;20576;-85
2021/05/06 11:20:12;;;;;;;30.35;5.63;;;15.00;99.90;;;;;;4915123;29;20067;-85
2021/05/06 11:22:53;;;;;;;36.42;6.30;;;15.10;99.90;;;;;;4918327;29;20515;-88
2021/05/06 11:25:37;;;;;;;29.58;5.05;;;15.20;99.90;;;;;;4902322;29;20052;-80
2021/05/06 11:28:36;;;;;;;26.05;4.78;;;15.20;99.90;;;;;;4902427;29;20052;-84
2021/05/06 11:31:02;;;;;;;26.98;4.82;;;15.10;99.90;;;;;;4885478;29;20071;-79
2021/05/06 11:33:29;;;;;;;33.60;5.47;;;15.00;99.90;;;;;;4918733;29;20048;-79
2021/05/06 11:36:04;;;;;;;32.70;5.10;;;15.10;99.90;;;;;;4918726;29;20070;-78
2021/05/06 11:38:39;;;;;;;31.23;5.63;;;15.10;99.90;;;;;;4901372;29;20046;-79
2021/05/06 11:41:14;;;;;;;25.38;5.35;;;15.10;99.90;;;;;;4899676;29;20048;-80
2021/05/06 11:43:47;;;;;;;26.90;5.28;;;15.00;99.90;;;;;;4927448;29;20414;-79
2021/05/06 11:46:15;;;;;;;24.67;5.82;;;15.10;99.90;;;;;;4911307;29;20056;-79
2021/05/06 11:48:44;;;;;;;30.38;5.50;;;15.10;99.90;;;;;;4918924;29;20079;-80
2021/05/06 11:51:26;;;;;;;28.30;5.45;;;15.10;99.90;;;;;;4918502;29;20052;-80
2021/05/06 11:54:04;;;;;;;27.42;5.25;;;15.20;99.90;;;;;;4902060;29;20047;-85
2021/05/06 11:56:31;;;;;;;29.48;5.68;;;15.10;99.90;;;;;;4900730;29;20050;-86
2021/05/06 11:58:59;;;;;;;29.10;5.05;;;14.90;99.90;;;;;;4915431;29;20052;-84
2021/05/06 12:01:28;;;;;;;28.63;5.07;;;14.80;99.90;;;;;;4902273;29;20100;-87
2021/05/06 12:03:56;;;;;;;23.83;5.47;;;14.90;99.90;;;;;;4902016;29;20380;-85
2021/05/06 12:06:31;;;;;;;31.00;5.07;;;14.90;99.90;;;;;;4918217;29;20086;-84
2021/05/06 12:08:58;;;;;;;27.60;4.32;;;14.80;99.90;;;;;;4902345;29;20052;-84
2021/05/06 12:11:41;;;;;;;29.50;5.70;;;14.60;99.90;;;;;;4916460;29;20051;-85
2021/05/06 12:14:10;;;;;;;31.42;5.57;;;14.60;99.90;;;;;;4899828;29;20052;-84
2021/05/06 12:16:38;;;;;;;28.60;5.60;;;14.60;99.90;;;;;;4901840;29;20487;-85
2021/05/06 12:19:11;;;;;;;34.10;6.18;;;14.70;99.90;;;;;;4901463;29;20071;-87
2021/05/06 12:21:47;;;;;;;38.88;6.00;;;14.70;99.90;;;;;;4902009;29;20052;-87
2021/05/06 12:24:33;;;;;;;28.83;5.15;;;14.50;99.90;;;;;;4918358;29;20052;-86
2021/05/06 12:27:16;;;;;;;31.42;5.18;;;14.70;99.90;;;;;;4921583;29;20054;-84
2021/05/06 12:29:48;;;;;;;28.85;5.25;;;14.90;99.90;;;;;;4905070;29;20491;-85
2021/05/06 12:32:17;;;;;;;26.67;4.78;;;15.00;99.90;;;;;;4898041;29;20056;-86
2021/05/06 12:34:45;;;;;;;26.77;5.10;;;15.00;99.90;;;;;;4900498;29;20053;-86
2021/05/06 12:37:13;;;;;;;28.08;5.40;;;14.90;99.90;;;;;;4902016;29;20052;-85
2021/05/06 12:39:45;;;;;;;31.15;5.78;;;14.80;99.90;;;;;;4903127;29;20544;-83
2021/05/06 12:42:12;;;;;;;35.15;4.97;;;14.90;99.90;;;;;;4901522;29;20057;-86
2021/05/06 12:44:41;;;;;;;29.17;5.32;;;14.70;99.90;;;;;;4902035;29;20400;-85
2021/05/06 12:47:17;;;;;;;30.83;4.93;;;14.60;99.90;;;;;;4881503;29;20049;-86
2021/05/06 12:49:46;;;;;;;33.08;6.28;;;14.60;99.90;;;;;;4901683;29;20131;-82
2021/05/06 12:52:33;;;;;;;35.60;5.72;;;14.60;99.90;;;;;;4903013;29;20397;-87
2021/05/06 12:55:01;;;;;;;26.27;4.93;;;14.60;99.90;;;;;;4908129;29;20051;-84
2021/05/06 12:57:29;;;;;;;21.67;4.80;;;14.40;99.90;;;;;;4906609;29;20044;-84
2021/05/06 13:00:20;;;;;;;31.80;5.20;;;14.30;99.90;;;;;;4902955;29;20052;-86
2021/05/06 13:02:46;;;;;;;29.27;4.70;;;14.30;99.90;;;;;;4901214;29;20051;-87
2021/05/06 13:05:28;;;;;;;23.70;4.15;;;14.40;99.90;;;;;;4897860;29;20048;-85
2021/05/06 13:07:55;;;;;;;22.60;4.00;;;14.40;99.90;;;;;;4898567;29;20096;-86
2021/05/06 13:10:29;;;;;;;16.80;3.05;;;14.40;99.90;;;;;;4902848;29;20116;-83
2021/05/06 13:13:04;;;;;;;17.75;3.50;;;14.40;99.90;;;;;;4901731;29;20109;-85
2021/05/06 13:15:46;;;;;;;17.47;2.97;;;14.40;99.90;;;;;;4901006;29;20492;-85
2021/05/06 13:18:13;;;;;;;13.48;2.38;;;14.30;99.90;;;;;;4902079;29;20500;-83
2021/05/06 13:20:40;;;;;;;20.65;3.13;;;14.20;99.90;;;;;;4902285;29;20056;-83
2021/05/06 13:23:24;;;;;;;17.75;2.97;;;14.10;99.90;;;;;;4896740;29;20056;-85
2021/05/06 13:25:56;;;;;;;15.70;3.45;;;14.00;99.90;;;;;;4900220;29;20041;-83
2021/05/06 13:28:29;;;;;;;18.65;2.72;;;14.00;99.90;;;;;;4900189;29;20049;-84
2021/05/06 13:31:07;;;;;;;19.15;3.17;;;14.00;99.90;;;;;;4902962;29;20052;-84
2021/05/06 13:33:34;;;;;;;19.55;2.65;;;14.00;99.90;;;;;;4903985;29;20040;-85
2021/05/06 13:36:08;;;;;;;20.55;3.00;;;14.00;99.90;;;;;;4904079;29;20075;-84
2021/05/06 13:38:55;;;;;;;18.08;2.92;;;14.00;99.90;;;;;;4902048;29;20558;-86
2021/05/06 13:41:27;;;;;;;14.02;2.63;;;14.00;99.90;;;;;;4902972;29;20452;-85
2021/05/06 13:43:55;;;;;;;18.15;2.90;;;14.20;99.90;;;;;;4901349;29;20048;-86
2021/05/06 13:46:25;;;;;;;15.70;3.10;;;14.30;99.90;;;;;;4904128;29;20052;-86
2021/05/06 13:48:53;;;;;;;17.88;3.03;;;14.40;99.90;;;;;;4920853;29;20055;-86
2021/05/06 13:51:21;;;;;;;22.50;4.32;;;14.60;99.90;;;;;;4920039;29;20048;-85
2021/05/06 13:53:48;;;;;;;;;;;14.60;99.90;;;;;;4904205;29;20066;-86
2021/05/06 13:56:15;;;;;;;13.38;2.78;;;14.60;99.90;;;;;;4917082;29;19974;-85
2021/05/06 13:58:42;;;;;;;15.70;2.45;;;14.60;99.90;;;;;;4919543;29;20503;-87
2021/05/06 14:01:12;;;;;;;15.43;2.95;;;14.70;99.90;;;;;;4902699;29;20066;-85
2021/05/06 14:03:39;;;;;;;19.35;3.03;;;14.70;99.90;;;;;;4903563;29;20415;-84
2021/05/06 14:06:06;;;;;;;15.65;2.83;;;14.70;99.90;;;;;;4919986;29;20052;-86
2021/05/06 14:08:34;;;;;;;21.73;3.17;;;14.80;99.90;;;;;;4919619;29;20510;-84
2021/05/06 14:11:01;;;;;;;18.77;2.97;;;14.80;99.90;;;;;;4900011;29;20132;-84
2021/05/06 14:13:30;;;;;;;16.15;2.47;;;14.90;99.90;;;;;;4903639;29;20052;-84
2021/05/06 14:15:57;;;;;;;;;;;15.00;99.90;;;;;;4920544;29;20056;-84
2021/05/06 14:18:23;;;;;;;16.35;2.85;;;15.10;99.90;;;;;;4902880;29;21422;-85
2021/05/06 14:20:50;;;;;;;14.73;2.50;;;15.30;99.90;;;;;;4920190;29;20055;-85
2021/05/06 14:23:19;;;;;;;15.20;3.15;;;15.40;99.90;;;;;;4916686;29;20052;-84
2021/05/06 14:25:46;;;;;;;14.27;3.50;;;15.40;99.90;;;;;;4918766;29;20055;-87
2021/05/06 14:28:13;;;;;;;22.48;3.90;;;15.40;99.90;;;;;;4919948;29;20056;-84
2021/05/06 14:30:39;;;;;;;18.70;4.18;;;15.40;99.90;;;;;;4919871;29;20496;-85
2021/05/06 14:33:05;;;;;;;18.35;3.10;;;15.40;99.90;;;;;;4919071;29;20082;-84
2021/05/06 14:35:33;;;;;;;23.77;4.22;;;15.40;99.90;;;;;;4918883;29;20479;-87
2021/05/06 14:38:00;;;;;;;13.43;2.53;;;15.50;99.90;;;;;;4899707;29;20574;-84
2021/05/06 14:40:27;;;;;;;18.25;3.42;;;15.40;99.90;;;;;;4920029;29;20066;-84
2021/05/06 14:42:53;;;;;;;15.55;3.47;;;15.40;99.90;;;;;;4903021;29;20048;-87
2021/05/06 14:45:20;;;;;;;17.02;2.97;;;15.30;99.90;;;;;;4919286;29;20460;-85
2021/05/06 14:47:46;;;;;;;14.45;2.63;;;15.20;99.90;;;;;;4902444;29;20419;-83
2021/05/06 14:50:14;;;;;;;13.55;2.40;;;15.10;99.90;;;;;;4898848;29;20068;-84
2021/05/06 14:52:41;;;;;;;12.77;3.03;;;14.90;99.90;;;;;;4918438;29;20056;-85
2021/05/06 14:55:10;;;;;;;11.68;2.40;;;14.80;99.90;;;;;;4919458;29;20819;-86
2021/05/06 14:57:38;;;;;;;10.57;2.55;;;14.90;99.90;;;;;;4919553;29;20052;-85
2021/05/06 15:00:08;;;;;;;10.50;1.90;;;14.90;99.90;;;;;;4919335;29;20048;-85
2021/05/06 15:02:35;;;;;;;9.88;1.85;;;14.80;99.90;;;;;;4902108;29;20048;-83
2021/05/06 15:05:03;;;;;;;12.00;1.95;;;14.70;99.90;;;;;;4915510;29;20052;-85
2021/05/06 15:07:31;;;;;;;11.55;2.40;;;14.60;99.90;;;;;;4903032;29;20040;-85
2021/05/06 15:09:57;;;;;;;14.77;2.35;;;14.60;99.90;;;;;;4919184;29;20100;-86
2021/05/06 15:12:24;;;;;;;17.42;2.75;;;14.60;99.90;;;;;;4918962;29;20060;-85
2021/05/06 15:14:50;;;;;;;15.00;2.78;;;14.70;99.90;;;;;;4919258;29;20064;-86
2021/05/06 15:17:17;;;;;;;9.95;2.13;;;14.70;99.90;;;;;;4916016;29;20048;-86
2021/05/06 15:19:44;;;;;;;7.97;1.80;;;14.80;99.90;;;;;;4917758;29;20526;-86
2021/05/06 15:22:11;;;;;;;7.60;2.30;;;14.90;99.90;;;;;;4902558;29;20108;-85
2021/05/06 15:24:52;;;;;;;6.65;1.52;;;15.00;99.90;;;;;;4904410;29;20052;-87
2021/05/06 15:27:19;;;;;;;8.95;1.42;;;15.00;99.90;;;;;;4918587;29;20066;-87
2021/05/06 15:29:47;;;;;;;6.50;0.90;;;14.80;99.90;;;;;;4919243;29;20134;-84
2021/05/06 15:32:13;;;;;;;4.80;1.02;;;14.70;99.90;;;;;;4898026;29;20052;-86
2021/05/06 15:34:40;;;;;;;7.38;1.30;;;14.70;99.90;;;;;;4901555;29;20067;-85
2021/05/06 15:37:08;;;;;;;38.00;20.55;;;14.80;99.90;;;;;;4919010;29;20048;-87
2021/05/06 15:39:39;;;;;;;5.30;1.15;;;14.90;99.90;;;;;;4902216;29;20040;-86
2021/05/06 15:42:05;;;;;;;5.22;2.15;;;15.10;99.90;;;;;;4901973;29;20775;-85
2021/05/06 15:44:32;;;;;;;4.78;0.90;;;15.20;99.90;;;;;;4918016;29;20060;-86
2021/05/06 15:46:59;;;;;;;6.13;1.48;;;15.20;99.90;;;;;;4915782;29;20068;-86
2021/05/06 15:49:32;;;;;;;7.07;1.40;;;15.20;99.90;;;;;;4902381;29;20048;-84
2021/05/06 15:52:00;;;;;;;8.30;6.65;;;15.10;99.90;;;;;;4902134;29;20063;-87
2021/05/06 15:54:27;;;;;;;6.40;2.17;;;15.00;99.90;;;;;;4901393;29;20055;-86
2021/05/06 15:56:53;;;;;;;5.30;2.72;;;14.90;99.90;;;;;;4902322;29;20044;-90
2021/05/06 15:59:21;;;;;;;6.38;1.70;;;14.90;99.90;;;;;;4897150;29;20052;-84
2021/05/06 16:01:48;;;;;;;4.78;1.40;;;14.90;99.90;;;;;;4921125;29;20056;-84
2021/05/06 16:04:19;;;;;;;3.55;1.23;;;14.90;99.90;;;;;;4903570;29;20059;-88
2021/05/06 16:06:46;;;;;;;5.50;1.05;;;14.80;99.90;;;;;;4918409;29;20523;-85
2021/05/06 16:09:12;;;;;;;3.63;1.50;;;14.60;99.90;;;;;;4910289;29;20056;-86
2021/05/06 16:11:39;;;;;;;7.63;1.63;;;14.30;99.90;;;;;;4897398;29;20048;-88
2021/05/06 16:14:05;;;;;;;4.43;1.05;;;14.20;99.90;;;;;;4900062;29;20781;-86
2021/05/06 16:16:31;;;;;;;2.58;1.20;;;14.10;99.90;;;;;;4905685;29;20115;-87
2021/05/06 16:19:00;;;;;;;3.90;1.02;;;13.90;99.90;;;;;;4902372;29;20051;-90
2021/05/06 16:21:27;;;;;;;4.45;1.10;;;13.80;99.90;;;;;;4905101;29;20904;-85
2021/05/06 16:23:53;;;;;;;4.63;1.02;;;13.70;99.90;;;;;;4904873;29;20436;-87
2021/05/06 16:26:20;;;;;;;2.70;0.88;;;13.70;99.90;;;;;;4908024;29;20475;-87
2021/05/06 16:28:46;;;;;;;3.58;0.90;;;13.60;99.90;;;;;;4905122;29;20047;-88
2021/05/06 16:31:13;;;;;;;8.50;1.52;;;13.40;99.90;;;;;;4920605;29;20460;-86
2021/05/06 16:33:45;;;;;;;5.80;1.20;;;13.10;99.90;;;;;;4906743;29;20055;-87
2021/05/06 16:39:16;;;;;;;3.63;0.90;;;13.00;99.90;;;;;;4922091;29;20100;-87
2021/05/06 16:41:53;;;;;;;4.88;0.95;;;13.00;99.90;;;;;;4905858;29;20141;-84
2021/05/06 16:44:27;;;;;;;2.58;0.60;;;12.90;99.90;;;;;;4902751;29;20060;-88
2021/05/06 16:47:00;;;;;;;2.25;0.60;;;12.80;99.90;;;;;;4905762;29;20165;-84
2021/05/06 16:49:27;;;;;;;2.88;0.75;;;12.80;99.90;;;;;;4907995;29;20173;-84
2021/05/06 16:51:54;;;;;;;1.08;0.50;;;12.70;99.90;;;;;;4907341;29;20052;-83
2021/05/06 16:54:21;;;;;;;4.63;0.77;;;12.50;99.90;;;;;;4920306;29;20056;-84
2021/05/06 16:56:47;;;;;;;1.92;0.70;;;12.50;99.90;;;;;;4902656;29;20087;-88
2021/05/06 16:59:14;;;;;;;2.55;0.70;;;12.50;99.90;;;;;;4921080;29;20056;-87
2021/05/06 17:01:41;;;;;;;1.90;0.50;;;12.50;99.90;;;;;;4924773;29;20052;-83
2021/05/06 17:04:09;;;;;;;3.90;1.05;;;12.60;99.90;;;;;;4921329;29;20052;-86
2021/05/06 17:06:36;;;;;;;3.15;0.70;;;12.60;99.90;;;;;;4906497;29;20048;-88
2021/05/06 17:09:04;;;;;;;4.80;0.63;;;12.60;99.90;;;;;;4902781;29;20578;-87
2021/05/06 17:11:31;;;;;;;1.60;0.50;;;12.60;99.90;;;;;;4903324;29;20051;-86
2021/05/06 17:14:02;;;;;;;1.35;0.65;;;12.40;99.90;;;;;;4921182;29;20056;-83
2021/05/06 17:16:29;;;;;;;1.08;0.40;;;12.20;99.90;;;;;;4903352;29;20056;-84
2021/05/06 17:18:56;;;;;;;1.58;0.50;;;12.10;99.90;;;;;;4902684;29;20047;-84
2021/05/06 17:21:22;;;;;;;2.45;0.50;;;12.00;99.90;;;;;;4902878;29;20110;-86
2021/05/06 17:23:49;;;;;;;1.13;0.43;;;11.90;99.90;;;;;;4905548;29;20414;-83
2021/05/06 17:26:16;;;;;;;0.98;0.43;;;11.80;99.90;;;;;;4898779;29;20447;-83
2021/05/06 17:28:42;;;;;;;2.30;0.40;;;11.70;99.90;;;;;;4906766;29;20052;-83
2021/05/06 17:31:10;;;;;;;1.65;0.50;;;11.70;99.90;;;;;;4906868;29;20059;-83
2021/05/06 17:33:40;;;;;;;2.17;0.52;;;11.70;99.90;;;;;;4902369;29;20056;-82
2021/05/06 17:36:08;;;;;;;1.63;0.47;;;11.70;99.90;;;;;;4919339;29;20059;-84
2021/05/06 17:38:35;;;;;;;0.30;0.30;;;11.70;99.90;;;;;;4924225;29;20047;-84
2021/05/06 17:41:02;;;;;;;2.08;0.45;;;11.60;99.90;;;;;;4908322;29;20059;-85
2021/05/06 17:43:29;;;;;;;2.33;0.60;;;11.60;99.90;;;;;;4917468;29;20056;-85
2021/05/06 17:45:57;;;;;;;1.25;0.52;;;11.50;99.90;;;;;;4901702;29;20416;-84
2021/05/06 17:48:24;;;;;;;2.70;0.75;;;11.50;99.90;;;;;;4902027;29;20056;-85
2021/05/06 17:50:52;;;;;;;3.33;0.70;;;11.50;99.90;;;;;;4900659;29;20402;-84
2021/05/06 17:53:19;;;;;;;2.72;0.77;;;11.40;99.90;;;;;;4902521;29;20628;-85
2021/05/06 17:55:46;;;;;;;5.45;2.38;;;11.40;99.90;;;;;;4902463;29;20407;-85
2021/05/06 17:58:12;;;;;;;2.35;0.80;;;11.30;99.90;;;;;;4918699;29;20051;-85
2021/05/06 18:00:39;;;;;;;6.95;2.35;;;11.30;99.90;;;;;;4901149;29;20066;-84
2021/05/06 18:03:06;;;;;;;2.25;1.17;;;11.30;99.90;;;;;;4895763;29;20065;-84
2021/05/06 18:05:33;;;;;;;2.33;0.88;;;11.20;99.90;;;;;;4903986;29;20059;-82
2021/05/06 18:07:59;;;;;;;2.53;1.15;;;11.20;99.90;;;;;;4922406;29;20052;-84
2021/05/06 18:13:08;;;;;;;6.57;2.17;;;11.10;99.90;;;;;;4922655;29;20056;-84
2021/05/06 18:15:34;;;;;;;5.07;1.60;;;11.00;99.90;;;;;;4898780;29;20056;-83
2021/05/06 18:18:01;;;;;;;4.35;1.10;;;11.10;99.90;;;;;;4922719;29;20052;-83
2021/05/06 18:20:28;;;;;;;4.97;1.58;;;11.00;99.90;;;;;;4920298;29;20500;-83
2021/05/06 18:22:55;;;;;;;5.25;1.00;;;11.00;99.90;;;;;;4899080;29;20048;-84
2021/05/06 18:25:22;;;;;;;10.00;1.17;;;11.00;99.90;;;;;;4923943;29;20525;-83
2021/05/06 18:27:57;;;;;;;2.92;1.00;;;11.00;99.90;;;;;;4901265;29;20056;-84
2021/05/06 18:30:24;;;;;;;4.55;0.88;;;10.90;99.90;;;;;;4914477;29;20060;-82
2021/05/06 18:32:50;;;;;;;3.42;1.00;;;10.90;99.90;;;;;;4914388;29;20427;-83
2021/05/06 18:35:17;;;;;;;3.75;0.75;;;10.90;99.90;;;;;;4913223;29;20408;-83
2021/05/06 18:37:43;;;;;;;1.70;0.85;;;10.90;99.90;;;;;;4913937;29;20120;-84
2021/05/06 18:40:10;;;;;;;4.05;0.93;;;10.90;99.90;;;;;;4896811;29;20051;-84
2021/05/06 18:42:38;;;;;;;2.15;1.00;;;10.80;99.90;;;;;;4916611;29;20040;-85
2021/05/06 18:45:05;;;;;;;5.18;1.25;;;10.80;99.90;;;;;;4896789;29;20103;-86
2021/05/06 18:47:31;;;;;;;3.22;1.00;;;10.80;99.90;;;;;;4901330;29;20058;-83
2021/05/06 18:49:58;;;;;;;3.33;1.10;;;10.70;99.90;;;;;;4899515;29;20143;-84
2021/05/06 18:52:25;;;;;;;3.78;1.20;;;10.70;99.90;;;;;;4896654;29;20064;-83
2021/05/06 18:54:53;;;;;;;3.35;1.30;;;10.70;99.90;;;;;;4897259;29;20169;-85
2021/05/06 18:57:20;;;;;;;2.78;1.10;;;10.70;99.90;;;;;;4888980;29;20056;-82
2021/05/06 18:59:47;;;;;;;2.45;0.98;;;10.80;99.90;;;;;;4912799;29;20044;-83
2021/05/06 19:02:13;;;;;;;5.80;1.23;;;10.90;99.90;;;;;;4887705;29;20056;-85
2021/05/06 19:04:40;;;;;;;2.08;0.85;;;11.00;99.90;;;;;;4889578;29;20049;-84
2021/05/06 19:07:08;;;;;;;4.78;1.05;;;11.00;99.90;;;;;;4906318;29;20435;-84
2021/05/06 19:09:34;;;;;;;3.28;1.40;;;10.90;99.90;;;;;;4907268;29;20048;-83
2021/05/06 19:12:01;;;;;;;3.33;1.20;;;10.90;99.90;;;;;;4909178;29;20147;-84
2021/05/06 19:14:30;;;;;;;5.32;1.65;;;10.80;99.90;;;;;;4890516;29;20052;-85
2021/05/06 19:16:56;;;;;;;3.65;1.30;;;10.70;99.90;;;;;;4890133;29;20044;-84
2021/05/06 19:19:24;;;;;;;2.78;1.30;;;10.70;99.90;;;;;;4892266;29;20056;-84
2021/05/06 19:21:51;;;;;;;2.33;1.27;;;10.50;99.90;;;;;;4909060;29;20499;-85
2021/05/06 19:24:19;;;;;;;3.78;1.20;;;10.40;99.90;;;;;;4891222;29;20131;-83
2021/05/06 19:26:46;;;;;;;6.80;1.63;;;10.40;99.90;;;;;;4892259;29;20463;-84
2021/05/06 19:29:12;;;;;;;4.40;1.33;;;10.40;99.90;;;;;;4891429;29;20056;-84
2021/05/06 19:31:39;;;;;;;3.92;2.00;;;10.20;99.90;;;;;;4908366;29;20518;-84
2021/05/06 19:34:06;;;;;;;2.65;1.48;;;10.20;99.90;;;;;;4909313;29;20118;-84
2021/05/06 19:36:33;;;;;;;3.78;1.50;;;10.10;99.90;;;;;;4911740;29;20044;-85
2021/05/06 19:38:59;;;;;;;6.20;1.83;;;10.00;99.90;;;;;;4913829;29;20048;-85
2021/05/06 19:41:32;;;;;;;3.45;1.60;;;10.00;99.90;;;;;;4877391;29;20040;-83
2021/05/06 19:44:03;;;;;;;4.43;1.60;;;9.90;99.90;;;;;;4894343;29;20428;-85
2021/05/06 19:46:46;;;;;;;3.45;1.90;;;9.80;99.90;;;;;;4916620;29;20048;-82
2021/05/06 19:49:13;;;;;;;3.70;1.60;;;9.80;99.90;;;;;;4912788;29;20056;-83
2021/05/06 19:51:40;;;;;;;3.13;1.40;;;9.70;99.90;;;;;;4918206;29;20108;-84
2021/05/06 19:54:07;;;;;;;2.03;1.45;;;9.60;99.90;;;;;;4895743;29;20048;-84
2021/05/06 19:56:34;;;;;;;2.42;1.33;;;9.60;99.90;;;;;;4919233;29;20052;-83
2021/05/06 19:59:00;;;;;;;3.45;1.45;;;9.50;99.90;;;;;;4896773;29;20044;-84
2021/05/06 20:01:26;;;;;;;4.68;1.45;;;9.50;99.90;;;;;;4918410;29;20567;-85
2021/05/06 20:03:53;;;;;;;4.90;1.48;;;9.40;99.90;;;;;;4915787;29;20539;-85
2021/05/06 20:06:20;;;;;;;4.57;1.17;;;9.30;99.90;;;;;;4916572;29;20617;-86
2021/05/06 20:08:47;;;;;;;2.78;1.23;;;9.30;99.90;;;;;;4901795;29;20044;-85
2021/05/06 20:11:14;;;;;;;2.03;0.80;;;9.20;99.90;;;;;;4902355;29;20044;-86
2021/05/06 20:13:44;;;;;;;6.78;0.98;;;9.20;99.90;;;;;;4900711;29;20048;-87
2021/05/06 20:16:12;;;;;;;4.32;1.05;;;9.10;99.90;;;;;;4920987;29;20059;-86
2021/05/06 20:18:39;;;;;;;2.72;1.02;;;9.00;99.90;;;;;;4898869;29;20055;-86
2021/05/06 20:21:22;;;;;;;3.90;1.10;;;9.00;99.90;;;;;;4895642;29;20051;-85
2021/05/06 20:23:51;;;;;;;2.63;1.08;;;9.00;99.90;;;;;;4900395;29;20528;-86
2021/05/06 20:26:18;;;;;;;2.78;1.15;;;8.90;99.90;;;;;;4918830;29;20107;-86
2021/05/06 20:28:44;;;;;;;1.55;1.00;;;8.80;99.90;;;;;;4919270;29;20419;-87
2021/05/06 20:31:11;;;;;;;4.90;1.33;;;8.80;99.90;;;;;;4894249;29;20051;-87
2021/05/06 20:33:38;;;;;;;2.67;1.20;;;8.70;99.90;;;;;;4913812;29;20142;-86